Time;durP1;ratioP1;P1;durP2;ratioP2;P2;SDS_P1;SDS_P2;PMS_P1;PMS_P2;Temp;Humidity;BMP_temperature;BMP_pressure;BME280_temperature;BME280_humidity;BME280_pressure;Samples;Min_cycle;Max_cycle;Signal;HPM_P1;HPM_P2
2022/01/01 00:00:21;;;;;;;26.38;14.43;;;;;;;13.53;100.00;102223.69;5221450;28;20374;-74
2022/01/01 00:02:52;;;;;;;27.45;14.98;;;;;;;13.53;100.00;102233.38;5223983;28;20036;-75
2022/01/01 00:05:24;;;;;;;27.48;15.25;;;;;;;13.53;100.00;102234.22;5221090;28;20110;-75
2022/01/01 00:07:57;;;;;;;29.50;13.13;;;;;;;13.46;100.00;102234.78;5221440;28;20033;-75
2022/01/01 00:10:30;;;;;;;35.42;22.02;;;;;;;13.52;100.00;102244.84;5223091;28;20538;-75
2022/01/01 00:13:02;;;;;;;28.13;13.40;;;;;;;13.53;100.00;102254.44;5224989;28;20468;-74
2022/01/01 00:15:34;;;;;;;22.67;11.85;;;;;;;13.49;100.00;102251.19;5225477;28;20017;-75
2022/01/01 00:18:05;;;;;;;26.85;12.15;;;;;;;13.51;100.00;102248.44;5203932;28;20493;-74
2022/01/01 00:20:36;;;;;;;28.05;11.30;;;;;;;13.54;100.00;102246.41;5224578;28;20520;-75
2022/01/01 00:23:08;;;;;;;23.88;11.13;;;;;;;13.55;100.00;102247.25;5223639;28;20344;-75
2022/01/01 00:25:39;;;;;;;27.67;11.35;;;;;;;13.49;100.00;102255.63;5220678;28;20059;-75
2022/01/01 00:28:12;;;;;;;21.08;10.30;;;;;;;13.53;100.00;102250.00;5223781;28;20022;-75
2022/01/01 00:30:43;;;;;;;;;;;;;;;14.03;100.00;102252.38;5225026;28;20028;-75
2022/01/01 00:33:14;;;;;;;26.07;10.07;;;;;;;13.56;100.00;102244.53;5223569;28;19917;-75
2022/01/01 00:35:46;;;;;;;25.17;10.85;;;;;;;13.54;100.00;102256.13;5224043;28;20109;-75
2022/01/01 00:38:17;;;;;;;23.10;10.20;;;;;;;13.51;100.00;102251.06;5222851;28;20033;-74
2022/01/01 00:40:48;;;;;;;27.55;10.82;;;;;;;13.47;100.00;102247.00;5223009;28;20443;-75
2022/01/01 00:43:20;;;;;;;25.27;10.43;;;;;;;13.51;100.00;102246.66;5225139;28;20033;-75
2022/01/01 00:45:51;;;;;;;26.60;10.27;;;;;;;13.48;100.00;102238.97;5224288;28;20025;-75
2022/01/01 00:48:22;;;;;;;22.45;10.15;;;;;;;13.46;100.00;102238.25;5201240;28;20502;-74
2022/01/01 00:50:53;;;;;;;25.38;10.95;;;;;;;13.48;100.00;102235.50;5221256;28;20107;-74
2022/01/01 00:53:25;;;;;;;26.05;10.45;;;;;;;13.46;100.00;102226.91;5221395;28;20033;-75
2022/01/01 00:55:57;;;;;;;25.10;10.52;;;;;;;13.43;100.00;102229.75;5223216;28;20026;-74
2022/01/01 00:58:28;;;;;;;22.45;10.07;;;;;;;13.47;100.00;102247.00;5221734;28;20030;-74
2022/01/01 01:01:00;;;;;;;23.92;9.55;;;;;;;13.44;100.00;102245.41;5204649;28;20034;-74
2022/01/01 01:03:31;;;;;;;26.98;9.38;;;;;;;13.43;100.00;102249.00;5222742;28;20084;-74
2022/01/01 01:06:02;;;;;;;28.00;10.15;;;;;;;13.46;100.00;102245.31;5226358;28;20029;-74
2022/01/01 01:08:34;;;;;;;23.55;9.05;;;;;;;13.44;100.00;102247.22;5223149;28;20026;-74
2022/01/01 01:11:08;;;;;;;24.50;9.98;;;;;;;13.46;100.00;102250.59;5221816;28;20022;-74
2022/01/01 01:13:40;;;;;;;23.63;9.88;;;;;;;13.41;100.00;102240.41;5222848;28;20029;-75
2022/01/01 01:16:12;;;;;;;26.17;9.35;;;;;;;13.44;100.00;102255.94;5226370;28;20478;-74
2022/01/01 01:18:43;;;;;;;23.08;10.07;;;;;;;13.38;100.00;102241.47;5223089;28;20072;-74
2022/01/01 01:21:14;;;;;;;19.98;9.48;;;;;;;13.41;100.00;102248.31;5223902;28;20034;-74
2022/01/01 01:23:47;;;;;;;23.02;10.20;;;;;;;13.44;100.00;102244.59;5223520;28;20037;-74
2022/01/01 01:26:18;;;;;;;21.90;10.98;;;;;;;13.41;100.00;102248.31;5222921;28;20109;-75
2022/01/01 01:28:51;;;;;;;25.48;10.43;;;;;;;13.43;100.00;102246.38;5219182;28;20049;-74
2022/01/01 01:31:28;;;;;;;23.98;10.80;;;;;;;13.45;100.00;102241.84;5203685;28;20116;-73
2022/01/01 01:34:01;;;;;;;21.17;9.40;;;;;;;13.41;100.00;102240.41;5204033;28;20030;-74
2022/01/01 01:36:33;;;;;;;;;;;;;;;13.94;100.00;102253.94;5221801;28;20056;-73
2022/01/01 01:39:05;;;;;;;28.80;10.30;;;;;;;13.47;100.00;102247.00;5224034;28;19952;-73
2022/01/01 01:41:36;;;;;;;23.52;10.50;;;;;;;13.39;100.00;102260.72;5224017;28;20825;-74
2022/01/01 01:44:26;;;;;;;24.13;10.82;;;;;;;13.53;100.00;102265.81;5220447;28;20052;-73
2022/01/01 01:47:00;;;;;;;26.40;12.77;;;;;;;13.34;100.00;102266.34;5218944;28;20116;-73
2022/01/01 01:49:31;;;;;;;27.75;12.15;;;;;;;13.33;100.00;102274.34;5223361;28;20048;-73
2022/01/01 01:52:03;;;;;;;23.95;10.23;;;;;;;13.32;100.00;102273.50;5223023;28;20033;-74
2022/01/01 01:54:34;;;;;;;26.63;10.38;;;;;;;13.34;100.00;102281.28;5221533;28;20053;-74
2022/01/01 01:57:06;;;;;;;22.58;10.43;;;;;;;13.31;100.00;102284.16;5225153;28;20735;-73
2022/01/01 01:59:39;;;;;;;22.70;9.90;;;;;;;13.29;100.00;102280.78;5222273;28;20382;-73
2022/01/01 02:02:12;;;;;;;;;;;;;;;13.85;100.00;102273.06;5221908;28;20421;-73
2022/01/01 02:04:43;;;;;;;25.10;10.88;;;;;;;13.35;100.00;102281.16;5221651;28;20370;-74
2022/01/01 02:07:14;;;;;;;20.10;10.65;;;;;;;13.34;100.00;102273.41;5223347;28;20025;-75
2022/01/01 02:09:46;;;;;;;20.30;10.07;;;;;;;13.28;100.00;102268.56;5220730;28;20108;-75
2022/01/01 02:12:17;;;;;;;22.63;9.60;;;;;;;13.33;100.00;102275.19;5221359;28;20033;-75
2022/01/01 02:17:23;;;;;;;22.25;12.05;;;;;;;13.34;100.00;102282.13;5219309;28;20502;-74
2022/01/01 02:20:00;;;;;;;23.75;10.95;;;;;;;13.32;100.00;102277.91;5224483;28;20049;-74
2022/01/01 02:22:45;;;;;;;25.25;11.10;;;;;;;13.44;100.00;102268.28;5219973;28;20506;-73
2022/01/01 02:25:19;;;;;;;25.75;11.73;;;;;;;13.31;100.00;102260.47;5224588;28;20040;-73
2022/01/01 02:27:50;;;;;;;21.83;10.60;;;;;;;13.35;100.00;102275.06;5220583;28;20021;-73
2022/01/01 02:30:23;;;;;;;22.17;11.07;;;;;;;13.39;100.00;102271.25;5223246;28;20059;-73
2022/01/01 02:32:54;;;;;;;24.50;11.60;;;;;;;13.36;100.00;102264.41;5221235;28;20029;-74
2022/01/01 02:35:25;;;;;;;24.05;12.25;;;;;;;13.32;100.00;102260.34;5220968;28;20087;-72
2022/01/01 02:37:57;;;;;;;26.63;11.50;;;;;;;13.36;100.00;102259.16;5220653;28;20052;-73
2022/01/01 02:40:28;;;;;;;18.00;10.65;;;;;;;13.38;100.00;102265.16;5221684;28;20048;-73
2022/01/01 02:43:00;;;;;;;26.02;12.40;;;;;;;13.35;100.00;102262.75;5219769;28;20482;-73
2022/01/01 02:45:31;;;;;;;22.75;12.13;;;;;;;13.40;100.00;102270.28;5221240;28;20046;-74
2022/01/01 02:48:03;;;;;;;23.17;12.32;;;;;;;13.39;100.00;102272.09;5221386;28;20319;-74
2022/01/01 02:50:34;;;;;;;23.90;12.20;;;;;;;13.37;100.00;102260.84;5221615;28;20389;-74
2022/01/01 02:53:16;;;;;;;20.50;11.93;;;;;;;13.50;100.00;102254.66;5218611;28;20041;-74
2022/01/01 02:55:47;;;;;;;24.35;12.05;;;;;;;13.41;100.00;102257.97;5221145;28;20025;-74
2022/01/01 02:58:18;;;;;;;21.88;11.73;;;;;;;13.38;100.00;102253.78;5222543;28;20032;-74
2022/01/01 03:00:50;;;;;;;22.98;11.85;;;;;;;13.36;100.00;102237.25;5200272;28;20032;-74
2022/01/01 03:03:21;;;;;;;18.20;11.52;;;;;;;13.37;100.00;102234.53;5218648;28;20122;-74
2022/01/01 03:05:52;;;;;;;20.05;12.88;;;;;;;13.29;100.00;102228.13;5220255;28;20026;-74
2022/01/01 03:08:23;;;;;;;23.77;12.73;;;;;;;13.38;100.00;102240.63;5201971;28;20029;-74
2022/01/01 03:10:55;;;;;;;25.75;12.30;;;;;;;13.32;100.00;102235.81;5221191;28;20030;-74
2022/01/01 03:13:26;;;;;;;23.58;12.73;;;;;;;13.33;100.00;102246.25;5220833;28;20053;-74
2022/01/01 03:15:57;;;;;;;19.05;11.23;;;;;;;13.38;100.00;102243.25;5223103;28;20382;-74
2022/01/01 03:18:29;;;;;;;24.83;12.32;;;;;;;13.35;100.00;102244.31;5222168;28;20069;-74
2022/01/01 03:21:00;;;;;;;23.08;13.15;;;;;;;13.36;100.00;102247.78;5219671;28;20399;-74
2022/01/01 03:23:31;;;;;;;24.98;12.75;;;;;;;13.35;100.00;102241.69;5219738;28;20041;-74
2022/01/01 03:26:03;;;;;;;23.08;12.02;;;;;;;13.39;100.00;102244.94;5222605;28;20101;-74
2022/01/01 03:28:34;;;;;;;22.92;12.40;;;;;;;13.37;100.00;102233.66;5219362;28;20076;-74
2022/01/01 03:31:05;;;;;;;23.30;11.55;;;;;;;13.37;100.00;102233.66;5219021;28;20026;-74
2022/01/01 03:33:37;;;;;;;23.33;12.27;;;;;;;13.35;100.00;102235.59;5221601;28;20025;-74
2022/01/01 03:36:08;;;;;;;19.13;10.95;;;;;;;13.38;100.00;102235.38;5221920;28;20026;-74
2022/01/01 03:38:39;;;;;;;18.48;10.65;;;;;;;13.38;100.00;102227.47;5221673;28;20017;-74
2022/01/01 03:41:11;;;;;;;18.67;10.43;;;;;;;13.39;100.00;102234.41;5222420;28;20108;-74
2022/01/01 03:43:42;;;;;;;22.63;10.25;;;;;;;13.39;100.00;102237.03;5219722;28;20045;-74
2022/01/01 03:46:14;;;;;;;20.70;9.82;;;;;;;13.32;100.00;102225.28;5221796;28;20311;-74
2022/01/01 03:48:45;;;;;;;19.30;9.93;;;;;;;13.35;100.00;102228.53;5218618;28;20045;-74
2022/01/01 03:51:16;;;;;;;17.80;9.73;;;;;;;13.34;100.00;102224.22;5222526;28;20029;-74
2022/01/01 03:53:48;;;;;;;17.88;9.25;;;;;;;13.30;100.00;102214.88;5225991;28;20123;-74
2022/01/01 03:56:19;;;;;;;16.55;9.48;;;;;;;13.37;100.00;102236.28;5223261;28;20106;-74
2022/01/01 03:58:50;;;;;;;19.20;9.20;;;;;;;13.34;100.00;102218.13;5225058;28;20025;-74
2022/01/01 04:01:21;;;;;;;20.80;8.73;;;;;;;13.33;100.00;102211.16;5222847;28;20030;-74
2022/01/01 04:03:53;;;;;;;18.17;9.02;;;;;;;13.34;100.00;102224.22;5204618;28;20021;-74
2022/01/01 04:06:24;;;;;;;18.65;8.13;;;;;;;13.34;100.00;102224.22;5223277;28;20033;-74
2022/01/01 04:08:55;;;;;;;17.20;7.88;;;;;;;13.36;100.00;102224.94;5222298;28;20083;-74
2022/01/01 04:11:27;;;;;;;14.10;7.60;;;;;;;13.34;100.00;102226.84;5222811;28;20033;-73
2022/01/01 04:13:58;;;;;;;21.40;8.57;;;;;;;13.36;100.00;102232.00;5224332;28;20043;-74
2022/01/01 04:16:29;;;;;;;21.02;8.25;;;;;;;13.34;100.00;102226.84;5224481;28;20037;-73
2022/01/01 04:19:00;;;;;;;13.40;7.32;;;;;;;13.39;100.00;102218.59;5207156;28;20021;-73
2022/01/01 04:21:32;;;;;;;16.27;7.43;;;;;;;13.39;100.00;102219.44;5225814;28;20506;-73
2022/01/01 04:24:03;;;;;;;15.48;7.15;;;;;;;13.37;100.00;102217.88;5223358;28;20109;-73
2022/01/01 04:26:35;;;;;;;13.80;7.70;;;;;;;13.41;100.00;102221.13;5221974;28;20045;-73
2022/01/01 04:29:06;;;;;;;17.45;7.63;;;;;;;13.38;100.00;102215.13;5204096;28;20025;-73
2022/01/01 04:31:38;;;;;;;16.13;6.95;;;;;;;13.46;100.00;102222.47;5222100;28;20057;-73
2022/01/01 04:34:09;;;;;;;13.93;6.63;;;;;;;13.49;100.00;102221.41;5222908;28;20017;-73
2022/01/01 04:36:48;;;;;;;13.40;6.93;;;;;;;13.47;100.00;102223.31;5224062;28;20026;-73
2022/01/01 04:39:19;;;;;;;22.25;7.35;;;;;;;13.49;100.00;102229.31;5223423;28;20026;-73
2022/01/01 04:41:50;;;;;;;17.30;6.88;;;;;;;13.48;100.00;102232.88;5220714;28;20033;-73
2022/01/01 04:44:22;;;;;;;12.90;6.55;;;;;;;13.49;100.00;102235.41;5225734;28;20056;-74
2022/01/01 04:46:53;;;;;;;15.77;6.88;;;;;;;13.45;100.00;102222.56;5222842;28;20029;-74
2022/01/01 04:49:25;;;;;;;16.50;7.07;;;;;;;13.49;100.00;102235.41;5225104;28;20033;-74
2022/01/01 04:51:56;;;;;;;14.48;6.95;;;;;;;13.50;100.00;102244.13;5218092;28;20026;-74
2022/01/01 04:54:27;;;;;;;16.48;7.35;;;;;;;13.48;100.00;102241.59;5203645;28;20041;-74
2022/01/01 04:56:59;;;;;;;14.32;8.00;;;;;;;13.44;100.00;102241.94;5222848;28;20018;-74
2022/01/01 04:59:30;;;;;;;14.00;6.85;;;;;;;13.47;100.00;102247.00;5223564;28;20044;-72
2022/01/01 05:02:03;;;;;;;15.02;7.75;;;;;;;13.46;100.00;102246.16;5223123;28;20101;-72
2022/01/01 05:04:37;;;;;;;15.02;7.57;;;;;;;13.43;100.00;102241.13;5222159;28;20029;-72
2022/01/01 05:07:09;;;;;;;14.32;7.07;;;;;;;13.42;100.00;102244.72;5223739;28;20013;-72
2022/01/01 05:09:40;;;;;;;15.73;6.88;;;;;;;13.45;100.00;102246.25;5220726;28;20028;-72
2022/01/01 05:12:11;;;;;;;15.02;6.88;;;;;;;13.44;100.00;102244.59;5224721;28;20037;-73
2022/01/01 05:14:42;;;;;;;13.68;7.03;;;;;;;13.44;100.00;102250.69;5223249;28;20017;-72
2022/01/01 05:17:14;;;;;;;13.73;7.35;;;;;;;13.39;100.00;102232.59;5223650;28;20575;-72
2022/01/01 05:19:45;;;;;;;17.88;7.07;;;;;;;13.37;100.00;102252.97;5219804;28;20029;-72
2022/01/01 05:22:17;;;;;;;16.50;7.07;;;;;;;13.43;100.00;102262.19;5222860;28;20060;-72
2022/01/01 05:24:48;;;;;;;13.95;7.47;;;;;;;13.42;100.00;102267.56;5228015;28;20072;-72
2022/01/01 05:27:19;;;;;;;15.88;6.90;;;;;;;13.43;100.00;102264.81;5221533;28;20064;-72
2022/01/01 05:29:50;;;;;;;14.05;6.95;;;;;;;13.39;100.00;102255.47;5221157;28;20018;-72
2022/01/01 05:32:22;;;;;;;14.98;7.32;;;;;;;13.38;100.00;102259.06;5205370;28;20060;-72
2022/01/01 05:34:53;;;;;;;12.38;7.28;;;;;;;13.33;100.00;102254.13;5220206;28;20075;-72
2022/01/01 05:37:24;;;;;;;15.68;7.25;;;;;;;13.37;100.00;102258.22;5223363;28;20037;-72
2022/01/01 05:39:56;;;;;;;14.90;7.28;;;;;;;13.36;100.00;102259.16;5220757;28;20018;-73
2022/01/01 05:42:27;;;;;;;17.38;7.50;;;;;;;13.34;100.00;102247.06;5221156;28;20042;-72
2022/01/01 05:44:58;;;;;;;12.80;7.20;;;;;;;13.37;100.00;102255.59;5220154;28;20061;-72
2022/01/01 05:47:30;;;;;;;17.25;7.13;;;;;;;13.36;100.00;102253.88;5223146;28;20502;-72
2022/01/01 05:50:01;;;;;;;13.38;6.88;;;;;;;13.31;100.00;102250.75;5219941;28;20025;-72
2022/01/01 05:52:33;;;;;;;14.23;7.65;;;;;;;13.32;100.00;102255.06;5204408;28;20116;-72
2022/01/01 05:55:05;;;;;;;17.60;8.02;;;;;;;13.29;100.00;102254.47;5212490;28;20021;-72
2022/01/01 05:57:36;;;;;;;16.80;7.53;;;;;;;13.33;100.00;102254.13;5221639;28;20387;-72
2022/01/01 06:00:08;;;;;;;16.63;6.85;;;;;;;13.27;100.00;102254.59;5221196;28;20022;-72
2022/01/01 06:02:40;;;;;;;16.13;7.30;;;;;;;13.27;100.00;102251.94;5220855;28;20037;-72
2022/01/01 06:05:12;;;;;;;11.85;6.43;;;;;;;13.33;100.00;102248.00;5223037;28;20040;-72
2022/01/01 06:07:43;;;;;;;11.80;5.80;;;;;;;13.32;100.00;102243.69;5223030;28;20025;-72
2022/01/01 06:10:14;;;;;;;12.68;6.15;;;;;;;13.25;100.00;102235.41;5221865;28;20037;-72
2022/01/01 06:12:45;;;;;;;12.90;6.10;;;;;;;13.25;100.00;102242.47;5222649;28;20037;-72
2022/01/01 06:15:17;;;;;;;11.10;5.95;;;;;;;13.25;100.00;102239.84;5222621;28;20029;-72
2022/01/01 06:17:48;;;;;;;13.20;6.05;;;;;;;13.18;100.00;102244.69;5221774;28;20072;-72
2022/01/01 06:20:20;;;;;;;12.27;5.40;;;;;;;13.15;100.00;102235.25;5222213;28;20030;-72
2022/01/01 06:22:51;;;;;;;14.05;6.18;;;;;;;13.12;100.00;102237.25;5221793;28;20022;-73
2022/01/01 06:25:22;;;;;;;10.48;5.22;;;;;;;13.04;100.00;102234.34;5221252;28;20061;-74
2022/01/01 06:27:53;;;;;;;14.68;6.22;;;;;;;12.99;100.00;102241.72;5211032;28;20028;-74
2022/01/01 06:30:25;;;;;;;17.33;6.55;;;;;;;12.96;100.00;102237.53;5220742;28;20048;-74
2022/01/01 06:32:56;;;;;;;13.00;6.47;;;;;;;12.97;100.00;102244.47;5221373;28;20028;-74
2022/01/01 06:35:27;;;;;;;11.32;6.35;;;;;;;12.95;100.00;102245.53;5220692;28;20022;-74
2022/01/01 06:37:59;;;;;;;12.10;5.38;;;;;;;12.91;100.00;102248.38;5220128;28;20095;-74
2022/01/01 06:40:30;;;;;;;9.77;5.20;;;;;;;12.88;100.00;102253.88;5219366;28;20021;-74
2022/01/01 06:43:02;;;;;;;15.30;5.65;;;;;;;12.87;100.00;102252.19;5219859;28;20061;-74
2022/01/01 06:45:34;;;;;;;12.45;5.72;;;;;;;12.84;100.00;102260.31;5221004;28;20073;-74
2022/01/01 06:48:06;;;;;;;13.20;5.40;;;;;;;12.82;100.00;102259.56;5224146;28;20025;-74
2022/01/01 06:50:37;;;;;;;12.18;5.47;;;;;;;12.79;100.00;102246.63;5220770;28;20091;-74
2022/01/01 06:53:10;;;;;;;12.70;5.18;;;;;;;12.76;100.00;102240.75;5220358;28;20197;-74
2022/01/01 06:55:41;;;;;;;11.18;4.93;;;;;;;12.79;100.00;102241.38;5222602;28;20026;-74
2022/01/01 06:58:13;;;;;;;12.25;4.45;;;;;;;12.77;100.00;102240.66;5221379;28;20021;-74
2022/01/01 07:00:44;;;;;;;11.80;5.18;;;;;;;12.80;100.00;102258.00;5221260;28;20030;-74
2022/01/01 07:03:21;;;;;;;12.48;4.95;;;;;;;12.86;100.00;102263.66;5219848;28;20402;-74
2022/01/01 07:05:53;;;;;;;12.18;5.28;;;;;;;12.80;100.00;102260.63;5223924;28;20017;-75
2022/01/01 07:08:24;;;;;;;10.13;4.20;;;;;;;12.81;100.00;102265.78;5202654;28;20056;-74
2022/01/01 07:10:55;;;;;;;13.80;4.45;;;;;;;12.84;100.00;102267.34;5222306;28;20033;-75
2022/01/01 07:13:27;;;;;;;14.07;5.13;;;;;;;12.80;100.00;102274.59;5218552;28;20029;-74
2022/01/01 07:15:58;;;;;;;12.35;4.78;;;;;;;12.84;100.00;102280.50;5217427;28;20022;-74
2022/01/01 07:18:29;;;;;;;15.05;5.30;;;;;;;12.83;100.00;102287.53;5220823;28;20780;-73
2022/01/01 07:21:01;;;;;;;11.00;4.38;;;;;;;12.85;100.00;102279.56;5221654;28;20033;-74
2022/01/01 07:23:32;;;;;;;12.52;4.82;;;;;;;12.78;100.00;102265.16;5203806;28;20040;-74
2022/01/01 07:26:03;;;;;;;11.50;5.05;;;;;;;12.83;100.00;102271.75;5201133;28;20009;-73
2022/01/01 07:28:35;;;;;;;8.30;4.10;;;;;;;12.83;100.00;102270.94;5226834;28;20053;-74
2022/01/01 07:31:06;;;;;;;11.73;4.43;;;;;;;12.85;100.00;102280.41;5224698;28;20028;-75
2022/01/01 07:33:37;;;;;;;8.85;4.55;;;;;;;12.84;100.00;102278.72;5223747;28;20222;-74
2022/01/01 07:36:09;;;;;;;15.60;5.32;;;;;;;12.80;100.00;102281.66;5227818;28;20025;-74
2022/01/01 07:38:40;;;;;;;12.65;5.28;;;;;;;12.78;100.00;102283.56;5226396;28;20021;-74
2022/01/01 07:41:11;;;;;;;10.18;5.13;;;;;;;12.82;100.00;102296.38;5223982;28;20092;-73
2022/01/01 07:43:43;;;;;;;15.18;5.50;;;;;;;12.81;100.00;102294.72;5223767;28;20049;-73
2022/01/01 07:46:14;;;;;;;12.18;5.10;;;;;;;12.76;100.00;102296.81;5220973;28;20161;-74
2022/01/01 07:48:45;;;;;;;11.27;4.75;;;;;;;12.80;100.00;102297.44;5203147;28;20017;-73
2022/01/01 07:51:16;;;;;;;11.82;4.40;;;;;;;12.80;100.00;102298.28;5222369;28;20033;-73
2022/01/01 07:53:48;;;;;;;10.68;4.80;;;;;;;12.83;100.00;102300.69;5219137;28;20026;-74
2022/01/01 07:56:19;;;;;;;9.70;4.10;;;;;;;12.83;100.00;102310.38;5218163;28;20017;-74
2022/01/01 07:58:50;;;;;;;10.82;4.22;;;;;;;12.80;100.00;102290.38;5215520;28;20076;-74
2022/01/01 08:01:21;;;;;;;11.55;5.20;;;;;;;12.82;100.00;102301.66;5218945;28;20040;-74
2022/01/01 08:03:55;;;;;;;11.77;4.43;;;;;;;12.79;100.00;102296.59;5217867;28;20034;-74
2022/01/01 08:06:26;;;;;;;;;;;;;;;13.29;100.00;102300.03;5224456;28;20866;-75
2022/01/01 08:08:58;;;;;;;12.47;4.40;;;;;;;12.87;100.00;102294.25;5222406;28;19920;-74
2022/01/01 08:11:29;;;;;;;14.95;5.15;;;;;;;12.83;100.00;102302.50;5222267;28;20026;-74
2022/01/01 08:14:01;;;;;;;9.80;4.53;;;;;;;12.86;100.00;102302.28;5221901;28;20026;-74
2022/01/01 08:16:32;;;;;;;11.40;5.13;;;;;;;12.87;100.00;102304.78;5219188;28;20017;-74
2022/01/01 08:19:03;;;;;;;11.32;5.15;;;;;;;12.86;100.00;102308.38;5218595;28;20458;-74
2022/01/01 08:21:34;;;;;;;11.55;4.70;;;;;;;12.88;100.00;102305.66;5217551;28;20481;-73
2022/01/01 08:24:06;;;;;;;10.25;4.55;;;;;;;12.87;100.00;102302.16;5221801;28;20505;-73
2022/01/01 08:26:37;;;;;;;7.80;4.15;;;;;;;12.94;100.00;102301.72;5221201;28;20036;-73
2022/01/01 08:29:09;;;;;;;9.48;4.72;;;;;;;12.91;100.00;102311.50;5216166;28;20026;-73
2022/01/01 08:31:40;;;;;;;10.95;4.70;;;;;;;12.88;100.00;102311.75;5218006;28;20032;-73
2022/01/01 08:34:11;;;;;;;8.55;4.63;;;;;;;12.89;100.00;102313.41;5221094;28;20017;-74
2022/01/01 08:36:43;;;;;;;11.60;4.68;;;;;;;12.91;100.00;102310.66;5220630;28;20021;-74
2022/01/01 08:39:15;;;;;;;12.07;4.43;;;;;;;12.89;100.00;102300.25;5215671;28;20037;-73
2022/01/01 08:41:48;;;;;;;10.55;4.43;;;;;;;12.88;100.00;102305.66;5220568;28;20378;-73
2022/01/01 08:44:19;;;;;;;10.25;5.22;;;;;;;12.85;100.00;102306.69;5182565;28;1069657;-74
2022/01/01 08:46:50;;;;;;;12.38;5.03;;;;;;;12.79;100.00;102304.50;5214121;28;20557;-74
2022/01/01 08:49:22;;;;;;;11.50;5.47;;;;;;;12.80;100.00;102306.16;5215787;28;20057;-74
2022/01/01 08:51:55;;;;;;;11.50;5.15;;;;;;;12.80;100.00;102318.47;5217348;28;20084;-74
2022/01/01 08:54:26;;;;;;;14.38;5.63;;;;;;;12.75;100.00;102310.09;5223017;28;20061;-74
2022/01/01 08:56:58;;;;;;;12.18;5.30;;;;;;;12.74;100.00;102319.75;5223215;28;20108;-73
2022/01/01 08:59:29;;;;;;;14.00;6.05;;;;;;;12.70;100.00;102307.78;5222887;28;20036;-73
2022/01/01 09:02:00;;;;;;;12.13;5.80;;;;;;;12.75;100.00;102310.09;5221960;28;20136;-72
2022/01/01 09:04:32;;;;;;;10.10;5.20;;;;;;;12.72;100.00;102305.88;5204409;28;20483;-74
2022/01/01 09:07:03;;;;;;;11.27;5.82;;;;;;;12.69;100.00;102290.34;5217296;28;20033;-74
2022/01/01 09:09:34;;;;;;;13.60;6.05;;;;;;;12.68;100.00;102293.88;5220764;28;20049;-74
2022/01/01 09:12:07;;;;;;;15.52;6.50;;;;;;;12.72;100.00;102297.97;5221510;28;20024;-75
2022/01/01 09:14:39;;;;;;;15.70;6.43;;;;;;;12.72;100.00;102292.72;5217207;28;20053;-73
2022/01/01 09:17:10;;;;;;;10.55;5.75;;;;;;;12.74;100.00;102287.38;5221658;28;20030;-74
2022/01/01 09:19:41;;;;;;;11.38;6.00;;;;;;;12.75;100.00;102289.03;5220469;28;20018;-74
2022/01/01 09:22:13;;;;;;;14.20;6.03;;;;;;;12.72;100.00;102295.34;5223618;28;20033;-74
2022/01/01 09:24:44;;;;;;;10.45;6.18;;;;;;;12.72;100.00;102290.09;5220429;28;20663;-74
2022/01/01 09:27:15;;;;;;;10.73;5.53;;;;;;;12.73;100.00;102289.16;5220730;28;20087;-75
2022/01/01 09:29:47;;;;;;;11.70;5.65;;;;;;;12.74;100.00;102290.00;5221697;28;20030;-74
2022/01/01 09:32:20;;;;;;;10.57;5.57;;;;;;;12.75;100.00;102291.69;5221699;28;20029;-74
2022/01/01 09:34:51;;;;;;;10.95;6.38;;;;;;;12.74;100.00;102288.22;5218855;28;20418;-72
2022/01/01 09:37:23;;;;;;;10.13;5.78;;;;;;;12.73;100.00;102289.16;5220582;28;20037;-75
2022/01/01 09:39:54;;;;;;;12.82;6.78;;;;;;;12.77;100.00;102287.16;5220253;28;20030;-74
2022/01/01 09:42:25;;;;;;;11.88;6.80;;;;;;;12.71;100.00;102288.41;5219765;28;20033;-74
2022/01/01 09:44:58;;;;;;;12.05;6.20;;;;;;;12.72;100.00;102290.09;5219858;28;20046;-74
2022/01/01 09:47:29;;;;;;;11.88;6.10;;;;;;;12.73;100.00;102288.31;5220207;28;20037;-74
2022/01/01 09:50:04;;;;;;;13.65;6.43;;;;;;;12.71;100.00;102277.91;5220791;28;20038;-74
2022/01/01 09:52:36;;;;;;;11.65;6.15;;;;;;;12.71;100.00;102277.91;5220716;28;20033;-73
2022/01/01 09:55:09;;;;;;;10.00;6.78;;;;;;;12.71;100.00;102271.81;5213197;28;20030;-73
2022/01/01 09:57:40;;;;;;;12.75;6.72;;;;;;;12.69;100.00;102271.94;5222113;28;20091;-74
2022/01/01 10:00:12;;;;;;;14.50;6.70;;;;;;;12.71;100.00;102274.44;5217001;28;20310;-73
2022/01/01 10:02:43;;;;;;;10.68;6.05;;;;;;;12.68;100.00;102270.22;5209791;28;20041;-73
2022/01/01 10:05:14;;;;;;;12.82;6.60;;;;;;;12.69;100.00;102253.53;5212383;28;20840;-74
2022/01/01 10:07:46;;;;;;;11.18;6.25;;;;;;;12.69;100.00;102264.03;5216583;28;20037;-73
2022/01/01 10:10:27;;;;;;;10.32;5.70;;;;;;;12.77;100.00;102255.59;5217227;28;20022;-72
2022/01/01 10:12:58;;;;;;;12.18;6.10;;;;;;;12.71;100.00;102262.13;5217534;28;20025;-72
2022/01/01 10:15:35;;;;;;;10.77;6.25;;;;;;;12.78;100.00;102244.97;5219135;28;20076;-72
2022/01/01 10:18:07;;;;;;;10.60;6.60;;;;;;;12.69;100.00;102253.53;5215953;28;20075;-72
2022/01/01 10:20:43;;;;;;;11.30;6.25;;;;;;;12.66;100.00;102244.06;5221463;28;20025;-74
2022/01/01 10:23:16;;;;;;;9.48;5.97;;;;;;;12.71;100.00;102248.97;5217465;28;20139;-74
2022/01/01 10:28:37;;;;;;;11.48;6.00;;;;;;;12.78;100.00;102233.59;5221221;28;20309;-74
2022/01/01 10:31:08;;;;;;;10.00;5.43;;;;;;;12.70;100.00;102226.28;5219067;28;20033;-74
2022/01/01 10:33:44;;;;;;;13.98;6.60;;;;;;;12.83;100.00;102229.69;5202644;28;20034;-74
2022/01/01 10:36:20;;;;;;;10.38;5.80;;;;;;;12.87;100.00;102236.41;5218935;28;20084;-74
2022/01/01 10:38:51;;;;;;;15.02;5.82;;;;;;;12.87;100.00;102225.88;5219824;28;20033;-73
2022/01/01 10:41:23;;;;;;;13.40;6.00;;;;;;;12.89;100.00;102223.16;5222726;28;20029;-73
2022/01/01 10:44:05;;;;;;;10.38;6.05;;;;;;;13.09;100.00;102219.88;5204069;28;20127;-74
2022/01/01 10:46:37;;;;;;;10.73;5.97;;;;;;;12.94;100.00;102222.81;5218028;28;20040;-73
2022/01/01 10:52:28;;;;;;;9.63;5.35;;;;;;;13.11;100.00;102198.75;5219386;28;20094;-74
2022/01/01 10:55:04;;;;;;;7.80;5.22;;;;;;;13.20;100.00;102208.56;5223260;28;20025;-73
2022/01/01 10:57:52;;;;;;;10.55;5.38;;;;;;;13.19;100.00;102204.28;5213628;28;20037;-73
2022/01/01 11:00:26;;;;;;;11.77;6.35;;;;;;;13.11;100.00;102188.22;5216324;28;20390;-74
2022/01/01 11:02:59;;;;;;;11.73;5.60;;;;;;;13.12;100.00;102188.09;5221155;28;20033;-73
2022/01/01 11:05:32;;;;;;;10.43;5.70;;;;;;;13.24;100.00;102191.63;5217029;28;20665;-74
2022/01/01 11:08:06;;;;;;;9.68;4.90;;;;;;;13.16;100.00;102188.72;5198966;28;20050;-74
2022/01/01 11:10:39;;;;;;;9.02;4.97;;;;;;;13.19;100.00;102196.38;5220722;28;20036;-74
2022/01/01 11:13:11;;;;;;;11.77;5.05;;;;;;;13.26;100.00;102199.41;5223307;28;20317;-73
2022/01/01 11:15:42;;;;;;;9.82;5.00;;;;;;;13.24;100.00;102196.06;5223489;28;20068;-74
2022/01/01 11:18:14;;;;;;;8.27;4.85;;;;;;;13.27;100.00;102193.22;5224976;28;20021;-73
2022/01/01 11:20:46;;;;;;;8.57;5.07;;;;;;;13.31;100.00;102184.13;5220591;28;20029;-72
2022/01/01 11:23:19;;;;;;;9.43;5.45;;;;;;;13.38;100.00;102190.63;5223115;28;20541;-73
2022/01/01 11:25:51;;;;;;;8.00;4.57;;;;;;;13.41;100.00;102187.75;5199354;28;20060;-73
2022/01/01 11:28:23;;;;;;;8.30;4.47;;;;;;;13.35;100.00;102177.69;5221639;28;20418;-73
2022/01/01 11:31:08;;;;;;;10.15;4.28;;;;;;;13.59;100.00;102175.81;5221119;28;20033;-73
2022/01/01 11:33:49;;;;;;;8.93;4.85;;;;;;;13.58;100.00;102170.66;5222093;28;20035;-73
2022/01/01 11:36:23;;;;;;;11.38;4.28;;;;;;;13.69;100.00;102173.31;5224402;28;20017;-73
2022/01/01 11:38:55;;;;;;;9.95;4.45;;;;;;;13.76;100.00;102184.22;5220446;28;20021;-74